sensor_id;sensor_type;location;lat;lon;timestamp;P1;durP1;ratioP1;P2;durP2;ratioP2
5339;SDS011;2692;48.848;8.924;2023-10-19T08:06:06;9.80;;;4.30;;
5339;SDS011;2692;48.848;8.924;2023-10-19T08:08:31;4.67;;;4.03;;
5339;SDS011;2692;48.848;8.924;2023-10-19T08:11:00;6.50;;;5.40;;
5339;SDS011;2692;48.848;8.924;2023-10-19T08:13:25;9.13;;;5.67;;
5339;SDS011;2692;48.848;8.924;2023-10-19T08:15:51;7.40;;;4.60;;
5339;SDS011;2692;48.848;8.924;2023-10-19T08:18:17;7.47;;;3.20;;
5339;SDS011;2692;48.848;8.924;2023-10-19T08:20:43;4.30;;;2.57;;
5339;SDS011;2692;48.848;8.924;2023-10-19T08:23:10;5.00;;;2.90;;
5339;SDS011;2692;48.848;8.924;2023-10-19T08:25:38;4.97;;;2.43;;
5339;SDS011;2692;48.848;8.924;2023-10-19T08:28:04;3.37;;;1.30;;
5339;SDS011;2692;48.848;8.924;2023-10-19T08:30:30;3.10;;;1.40;;
5339;SDS011;2692;48.848;8.924;2023-10-19T08:32:55;5.23;;;1.70;;
5339;SDS011;2692;48.848;8.924;2023-10-19T08:35:23;1.73;;;1.00;;
5339;SDS011;2692;48.848;8.924;2023-10-19T08:37:51;1.97;;;1.27;;
5339;SDS011;2692;48.848;8.924;2023-10-19T08:40:17;2.63;;;1.40;;
5339;SDS011;2692;48.848;8.924;2023-10-19T08:42:46;2.20;;;1.17;;
5339;SDS011;2692;48.848;8.924;2023-10-19T08:45:12;3.47;;;1.40;;
5339;SDS011;2692;48.848;8.924;2023-10-19T08:47:48;4.27;;;2.30;;
5339;SDS011;2692;48.848;8.924;2023-10-19T08:50:21;1.87;;;1.07;;
5339;SDS011;2692;48.848;8.924;2023-10-19T08:52:48;2.37;;;1.43;;
5339;SDS011;2692;48.848;8.924;2023-10-19T08:55:17;2.63;;;1.33;;
5339;SDS011;2692;48.848;8.924;2023-10-19T08:57:42;3.30;;;0.90;;
5339;SDS011;2692;48.848;8.924;2023-10-19T09:00:08;1.87;;;1.10;;
5339;SDS011;2692;48.848;8.924;2023-10-19T09:02:34;2.27;;;1.43;;
5339;SDS011;2692;48.848;8.924;2023-10-19T09:05:05;1.70;;;0.90;;
5339;SDS011;2692;48.848;8.924;2023-10-19T09:07:31;3.70;;;1.20;;
5339;SDS011;2692;48.848;8.924;2023-10-19T09:09:59;3.70;;;1.20;;
5339;SDS011;2692;48.848;8.924;2023-10-19T09:12:24;5.17;;;0.90;;
5339;SDS011;2692;48.848;8.924;2023-10-19T09:14:49;3.87;;;1.03;;
5339;SDS011;2692;48.848;8.924;2023-10-19T09:17:15;2.63;;;1.20;;
5339;SDS011;2692;48.848;8.924;2023-10-19T09:19:43;2.03;;;1.10;;
5339;SDS011;2692;48.848;8.924;2023-10-19T09:22:10;1.80;;;0.90;;
5339;SDS011;2692;48.848;8.924;2023-10-19T09:24:51;4.30;;;1.20;;
5339;SDS011;2692;48.848;8.924;2023-10-19T09:27:19;2.00;;;1.13;;
5339;SDS011;2692;48.848;8.924;2023-10-19T09:29:45;2.60;;;1.20;;
5339;SDS011;2692;48.848;8.924;2023-10-19T09:32:11;7.73;;;1.80;;
5339;SDS011;2692;48.848;8.924;2023-10-19T09:34:38;4.07;;;1.30;;
5339;SDS011;2692;48.848;8.924;2023-10-19T09:37:06;2.07;;;0.90;;
5339;SDS011;2692;48.848;8.924;2023-10-19T09:39:31;1.90;;;1.10;;
5339;SDS011;2692;48.848;8.924;2023-10-19T09:42:00;5.80;;;1.40;;
5339;SDS011;2692;48.848;8.924;2023-10-19T09:44:45;1.77;;;1.00;;
5339;SDS011;2692;48.848;8.924;2023-10-19T09:47:17;1.60;;;0.87;;
5339;SDS011;2692;48.848;8.924;2023-10-19T09:49:49;1.83;;;1.00;;
5339;SDS011;2692;48.848;8.924;2023-10-19T09:52:15;3.40;;;1.10;;
5339;SDS011;2692;48.848;8.924;2023-10-19T09:57:20;2.37;;;1.20;;
5339;SDS011;2692;48.848;8.924;2023-10-19T09:59:49;2.07;;;1.10;;
5339;SDS011;2692;48.848;8.924;2023-10-19T10:02:16;2.10;;;1.03;;
5339;SDS011;2692;48.848;8.924;2023-10-19T10:04:43;1.70;;;0.90;;
5339;SDS011;2692;48.848;8.924;2023-10-19T10:07:13;2.43;;;0.80;;
5339;SDS011;2692;48.848;8.924;2023-10-19T10:09:40;2.20;;;0.77;;
5339;SDS011;2692;48.848;8.924;2023-10-19T10:12:25;2.03;;;0.70;;
5339;SDS011;2692;48.848;8.924;2023-10-19T10:17:23;1.30;;;0.80;;
5339;SDS011;2692;48.848;8.924;2023-10-19T10:19:53;2.00;;;1.00;;
5339;SDS011;2692;48.848;8.924;2023-10-19T10:22:21;3.10;;;0.93;;
5339;SDS011;2692;48.848;8.924;2023-10-19T10:24:46;9.43;;;1.50;;
5339;SDS011;2692;48.848;8.924;2023-10-19T10:27:15;6.60;;;1.50;;
5339;SDS011;2692;48.848;8.924;2023-10-19T10:29:58;1.70;;;0.93;;
5339;SDS011;2692;48.848;8.924;2023-10-19T10:35:09;1.60;;;1.00;;
5339;SDS011;2692;48.848;8.924;2023-10-19T10:37:37;3.13;;;1.20;;
5339;SDS011;2692;48.848;8.924;2023-10-19T10:40:03;2.00;;;1.00;;
5339;SDS011;2692;48.848;8.924;2023-10-19T10:42:30;2.40;;;1.07;;
5339;SDS011;2692;48.848;8.924;2023-10-19T10:44:56;2.50;;;1.00;;
5339;SDS011;2692;48.848;8.924;2023-10-19T10:47:22;3.73;;;0.80;;
5339;SDS011;2692;48.848;8.924;2023-10-19T10:49:53;1.87;;;1.00;;
5339;SDS011;2692;48.848;8.924;2023-10-19T10:52:38;2.30;;;1.10;;
5339;SDS011;2692;48.848;8.924;2023-10-19T10:55:11;2.20;;;0.87;;
5339;SDS011;2692;48.848;8.924;2023-10-19T10:57:38;2.50;;;1.00;;
5339;SDS011;2692;48.848;8.924;2023-10-19T11:00:06;1.70;;;1.17;;
5339;SDS011;2692;48.848;8.924;2023-10-19T11:02:34;11.60;;;1.57;;
5339;SDS011;2692;48.848;8.924;2023-10-19T11:05:00;2.10;;;0.90;;
5339;SDS011;2692;48.848;8.924;2023-10-19T11:07:26;1.83;;;0.83;;
5339;SDS011;2692;48.848;8.924;2023-10-19T11:09:51;4.43;;;1.50;;
5339;SDS011;2692;48.848;8.924;2023-10-19T11:12:17;1.67;;;1.00;;
5339;SDS011;2692;48.848;8.924;2023-10-19T11:14:54;4.27;;;1.03;;
5339;SDS011;2692;48.848;8.924;2023-10-19T11:17:20;1.10;;;0.60;;
5339;SDS011;2692;48.848;8.924;2023-10-19T11:19:52;3.87;;;0.90;;
5339;SDS011;2692;48.848;8.924;2023-10-19T11:22:18;2.43;;;1.17;;
5339;SDS011;2692;48.848;8.924;2023-10-19T11:24:43;6.10;;;1.00;;
5339;SDS011;2692;48.848;8.924;2023-10-19T11:27:09;2.07;;;1.10;;
5339;SDS011;2692;48.848;8.924;2023-10-19T11:29:36;2.70;;;1.10;;
5339;SDS011;2692;48.848;8.924;2023-10-19T11:32:02;3.20;;;1.20;;
5339;SDS011;2692;48.848;8.924;2023-10-19T11:34:27;1.73;;;0.77;;
5339;SDS011;2692;48.848;8.924;2023-10-19T11:36:54;1.73;;;1.03;;
5339;SDS011;2692;48.848;8.924;2023-10-19T11:39:22;1.20;;;0.60;;
